createdAt,value
2023-05-06T00:02:26.597Z,1.35
2023-05-06T00:04:58.209Z,1.45
2023-05-06T00:07:27.927Z,1.42
2023-05-06T00:09:57.844Z,1.37
2023-05-06T00:12:27.557Z,1.34
2023-05-06T00:14:57.693Z,1.28
2023-05-06T00:17:27.328Z,1.24
2023-05-06T00:19:58.967Z,1.27
2023-05-06T00:22:28.680Z,1.20
2023-05-06T00:24:58.758Z,1.17
2023-05-06T00:27:29.385Z,1.15
2023-05-06T00:29:59.505Z,1.21
2023-05-06T00:32:29.965Z,1.05
2023-05-06T00:35:02.157Z,0.98
2023-05-06T00:37:31.754Z,0.95
2023-05-06T00:40:01.744Z,0.95
2023-05-06T00:42:31.432Z,0.81
2023-05-06T00:45:01.569Z,0.82
2023-05-06T00:47:31.285Z,0.75
2023-05-06T00:50:02.952Z,0.78
2023-05-06T00:52:32.755Z,0.77
2023-05-06T00:55:02.855Z,0.62
2023-05-06T00:57:32.702Z,0.56
2023-05-06T01:00:02.624Z,0.58
2023-05-06T01:02:43.719Z,0.47
2023-05-06T01:05:19.614Z,0.48
2023-05-06T01:07:54.243Z,0.43
2023-05-06T01:10:29.327Z,0.53
2023-05-06T01:13:03.703Z,0.45
2023-05-06T01:15:36.582Z,0.43
2023-05-06T01:18:09.856Z,0.37
2023-05-06T01:20:43.880Z,0.34
2023-05-06T01:23:15.400Z,0.36
2023-05-06T01:25:45.512Z,0.38
2023-05-06T01:28:15.534Z,0.41
2023-05-06T01:30:54.088Z,0.43
2023-05-06T01:33:30.268Z,0.44
2023-05-06T01:36:04.850Z,0.42
2023-05-06T01:38:39.583Z,0.32
2023-05-06T01:41:09.796Z,0.24
2023-05-06T01:43:42.146Z,0.18
2023-05-06T01:46:15.373Z,0.17
2023-05-06T01:48:47.036Z,0.23
2023-05-06T01:51:17.095Z,0.28
2023-05-06T01:53:48.388Z,0.16
2023-05-06T01:56:18.696Z,0.11
2023-05-06T01:58:48.391Z,0.12
2023-05-06T02:01:18.513Z,0.16
2023-05-06T02:03:48.287Z,0.25
2023-05-06T02:06:18.766Z,0.20
2023-05-06T02:08:50.518Z,0.15
2023-05-06T02:11:24.268Z,0.13
2023-05-06T02:13:56.587Z,0.09
2023-05-06T02:16:29.237Z,0.06
2023-05-06T02:18:58.983Z,0.03
2023-05-06T02:21:29.915Z,0.01
2023-05-06T02:24:01.139Z,0.03
2023-05-06T02:26:31.265Z,0.08
2023-05-06T02:29:00.934Z,0.14
2023-05-06T02:31:30.934Z,0.22
2023-05-06T02:34:00.684Z,0.29
2023-05-06T02:36:30.842Z,0.28
2023-05-06T02:39:02.277Z,0.37
2023-05-06T02:41:32.344Z,0.61
2023-05-06T02:44:02.196Z,0.68
2023-05-06T02:46:34.507Z,0.69
2023-05-06T02:49:04.200Z,0.57
2023-05-06T02:51:34.304Z,0.50
2023-05-06T02:54:06.038Z,0.51
2023-05-06T02:56:36.126Z,0.60
2023-05-06T02:59:06.005Z,0.61
2023-05-06T03:01:36.041Z,0.52
2023-05-06T03:04:06.069Z,0.60
2023-05-06T03:06:36.289Z,0.58
2023-05-06T03:09:07.410Z,0.57
2023-05-06T03:11:37.819Z,0.67
2023-05-06T03:14:08.666Z,0.66
2023-05-06T03:16:38.999Z,0.66
2023-05-06T03:19:09.550Z,0.71
2023-05-06T03:21:39.898Z,0.71
2023-05-06T03:24:11.817Z,0.63
2023-05-06T03:26:42.597Z,0.68
2023-05-06T03:29:14.785Z,0.65
2023-05-06T03:31:47.255Z,0.68
2023-05-06T03:34:17.071Z,0.70
2023-05-06T03:36:49.400Z,0.83
2023-05-06T03:39:20.965Z,0.89
2023-05-06T03:41:51.277Z,0.91
2023-05-06T03:44:21.112Z,0.98
2023-05-06T03:46:51.472Z,1.02
2023-05-06T03:49:22.130Z,1.33
2023-05-06T03:51:53.693Z,1.46
2023-05-06T03:54:26.923Z,1.68
2023-05-06T03:56:57.143Z,1.93
2023-05-06T03:59:26.959Z,2.10
2023-05-06T04:01:59.184Z,2.23
2023-05-06T04:04:29.192Z,2.34
2023-05-06T04:06:59.658Z,2.40
2023-05-06T04:09:30.920Z,2.42
2023-05-06T04:12:02.567Z,2.56
2023-05-06T04:14:32.999Z,2.57
2023-05-06T04:17:03.596Z,2.68
2023-05-06T04:19:33.903Z,2.75
2023-05-06T04:22:03.875Z,2.81
2023-05-06T04:24:35.040Z,2.93
2023-05-06T04:27:05.300Z,2.92
2023-05-06T04:29:35.557Z,2.98
2023-05-06T04:32:08.036Z,3.04
2023-05-06T04:34:38.871Z,3.08
2023-05-06T04:37:10.741Z,3.11
2023-05-06T04:39:47.785Z,3.16
2023-05-06T04:42:18.231Z,3.23
2023-05-06T04:44:54.903Z,3.29
2023-05-06T04:47:38.713Z,3.33
2023-05-06T04:50:16.283Z,3.41
2023-05-06T04:52:57.704Z,3.43
2023-05-06T04:55:28.812Z,3.50
2023-05-06T04:57:59.021Z,3.53
2023-05-06T05:00:29.267Z,3.59
2023-05-06T05:02:59.920Z,3.63
2023-05-06T05:05:30.180Z,3.75
2023-05-06T05:08:00.902Z,3.85
2023-05-06T05:10:34.371Z,3.85
2023-05-06T05:13:04.624Z,3.86
2023-05-06T05:15:35.870Z,3.87
2023-05-06T05:18:06.631Z,3.93
2023-05-06T05:20:37.198Z,3.98
2023-05-06T05:23:08.683Z,4.06
2023-05-06T05:25:40.425Z,4.06
2023-05-06T05:28:10.734Z,4.17
2023-05-06T05:30:41.805Z,4.32
2023-05-06T05:33:12.620Z,4.38
2023-05-06T05:35:43.368Z,4.40
2023-05-06T05:38:14.823Z,4.48
2023-05-06T05:40:46.775Z,4.66
2023-05-06T05:43:17.094Z,4.70
2023-05-06T05:45:47.249Z,4.78
2023-05-06T05:48:17.521Z,4.91
2023-05-06T05:50:48.322Z,5.12
2023-05-06T05:53:18.752Z,5.19
2023-05-06T05:55:50.506Z,5.18
2023-05-06T05:58:20.612Z,5.23
2023-05-06T06:00:51.441Z,5.32
2023-05-06T06:03:22.375Z,5.41
2023-05-06T06:05:53.378Z,5.46
2023-05-06T06:08:23.154Z,5.56
2023-05-06T06:10:56.845Z,5.85
2023-05-06T06:13:31.888Z,6.00
2023-05-06T06:16:02.656Z,6.20
2023-05-06T06:18:32.714Z,6.35
2023-05-06T06:21:02.868Z,6.36
2023-05-06T06:23:32.787Z,6.52
2023-05-06T06:26:05.318Z,6.49
2023-05-06T06:28:36.158Z,6.58
2023-05-06T06:31:06.358Z,6.60
2023-05-06T06:33:36.490Z,6.59
2023-05-06T06:36:06.896Z,6.89
2023-05-06T06:38:36.662Z,6.99
2023-05-06T06:41:09.870Z,6.90
2023-05-06T06:43:40.178Z,7.36
2023-05-06T06:46:19.616Z,7.86
2023-05-06T06:48:49.798Z,7.64
2023-05-06T06:51:20.211Z,7.73
2023-05-06T06:53:49.784Z,7.75
2023-05-06T06:56:21.819Z,7.83
2023-05-06T06:58:53.118Z,7.95
2023-05-06T07:01:23.679Z,7.91
2023-05-06T07:03:53.439Z,7.99
2023-05-06T07:06:23.641Z,7.82
2023-05-06T07:08:53.524Z,7.90
2023-05-06T07:11:25.163Z,7.95
2023-05-06T07:13:55.041Z,7.91
2023-05-06T07:16:25.199Z,8.12
2023-05-06T07:18:55.058Z,8.13
2023-05-06T07:21:25.361Z,8.30
2023-05-06T07:23:55.170Z,8.23
2023-05-06T07:26:26.918Z,8.25
2023-05-06T07:28:56.707Z,8.71
2023-05-06T07:31:27.191Z,8.40
2023-05-06T07:33:57.280Z,8.38
2023-05-06T07:36:28.906Z,8.52
2023-05-06T07:38:58.838Z,8.64
2023-05-06T07:41:30.639Z,8.81
2023-05-06T07:44:00.239Z,8.56
2023-05-06T07:46:30.664Z,8.56
2023-05-06T07:49:00.780Z,8.68
2023-05-06T07:51:30.550Z,8.60
2023-05-06T07:54:01.043Z,8.86
2023-05-06T07:56:32.312Z,8.95
2023-05-06T07:59:02.635Z,9.02
2023-05-06T08:01:32.468Z,8.94
2023-05-06T08:04:02.704Z,8.85
2023-05-06T08:06:32.726Z,8.99
2023-05-06T08:09:02.867Z,8.98
2023-05-06T08:11:34.097Z,8.92
2023-05-06T08:14:04.064Z,9.23
2023-05-06T08:16:34.875Z,8.97
2023-05-06T08:19:05.081Z,8.94
2023-05-06T08:21:34.797Z,8.94
2023-05-06T08:24:05.191Z,9.01
2023-05-06T08:26:36.591Z,9.12
2023-05-06T08:29:06.901Z,9.09
2023-05-06T08:31:37.352Z,9.09
2023-05-06T08:34:07.351Z,9.17
2023-05-06T08:36:37.030Z,9.15
2023-05-06T08:39:07.077Z,9.52
2023-05-06T08:41:40.021Z,9.52
2023-05-06T08:44:10.265Z,9.21
2023-05-06T08:46:40.045Z,9.11
2023-05-06T08:49:10.200Z,9.07
2023-05-06T08:51:40.253Z,9.21
2023-05-06T08:54:11.822Z,9.06
2023-05-06T08:56:46.361Z,8.85
2023-05-06T08:59:16.091Z,8.94
2023-05-06T09:01:46.351Z,9.00
2023-05-06T09:04:17.851Z,8.74
2023-05-06T09:06:47.957Z,8.47
2023-05-06T09:09:17.751Z,8.55
2023-05-06T09:11:54.196Z,8.60
2023-05-06T09:14:23.944Z,8.72
2023-05-06T09:16:54.149Z,8.60
2023-05-06T09:19:24.320Z,8.80
2023-05-06T09:21:54.396Z,8.93
2023-05-06T09:24:24.946Z,8.85
2023-05-06T09:26:57.852Z,8.75
2023-05-06T09:29:27.621Z,8.62
2023-05-06T09:31:58.473Z,8.59
2023-05-06T09:34:29.035Z,8.81
2023-05-06T09:36:59.164Z,8.68
2023-05-06T09:39:29.285Z,8.39
2023-05-06T09:42:02.573Z,8.84
2023-05-06T09:44:33.279Z,9.00
2023-05-06T09:47:03.328Z,8.92
2023-05-06T09:49:33.414Z,8.78
2023-05-06T09:52:03.244Z,8.87
2023-05-06T09:54:33.618Z,9.02
2023-05-06T09:57:06.304Z,8.85
2023-05-06T09:59:37.737Z,8.56
2023-05-06T10:02:07.462Z,8.64
2023-05-06T10:04:39.890Z,8.74
2023-05-06T10:07:11.866Z,8.87
2023-05-06T10:09:42.969Z,8.99
2023-05-06T10:12:15.412Z,9.04
2023-05-06T10:14:45.503Z,8.91
2023-05-06T10:17:16.294Z,8.77
2023-05-06T10:19:47.333Z,8.90
2023-05-06T10:22:20.258Z,8.97
2023-05-06T10:24:54.757Z,8.95
2023-05-06T10:27:26.580Z,9.12
2023-05-06T10:30:00.275Z,9.19
2023-05-06T10:32:33.168Z,9.28
2023-05-06T10:35:07.855Z,9.45
2023-05-06T10:37:39.666Z,9.47
2023-05-06T10:40:10.472Z,9.19
2023-05-06T10:42:41.786Z,9.26
2023-05-06T10:45:12.364Z,9.38
2023-05-06T10:48:02.474Z,9.03
2023-05-06T10:50:32.841Z,9.06
2023-05-06T10:53:02.858Z,8.90
2023-05-06T10:55:35.099Z,9.21
2023-05-06T10:58:14.413Z,9.43
2023-05-06T11:00:55.110Z,9.38
2023-05-06T11:03:25.606Z,9.23
2023-05-06T11:05:55.859Z,9.31
2023-05-06T11:08:26.820Z,9.36
2023-05-06T11:10:57.139Z,9.36
2023-05-06T11:13:29.557Z,9.31
2023-05-06T11:16:02.093Z,9.53
2023-05-06T11:18:44.905Z,9.71
2023-05-06T11:21:34.142Z,9.84
2023-05-06T11:24:14.614Z,9.57
2023-05-06T11:26:45.032Z,9.50
2023-05-06T11:29:16.942Z,9.52
2023-05-06T11:31:47.604Z,9.51
2023-05-06T11:34:27.743Z,9.59
2023-05-06T11:36:59.791Z,9.56
2023-05-06T11:39:31.067Z,9.51
2023-05-06T11:42:03.229Z,9.62
2023-05-06T11:44:36.135Z,9.73
2023-05-06T11:47:07.039Z,9.78
2023-05-06T11:49:37.470Z,9.84
2023-05-06T11:52:07.470Z,10.01
2023-05-06T11:54:37.684Z,9.83
2023-05-06T11:57:08.653Z,9.82
2023-05-06T11:59:40.738Z,9.75
2023-05-06T12:02:13.005Z,9.83
2023-05-06T12:04:44.202Z,10.04
2023-05-06T12:07:18.432Z,10.16
2023-05-06T12:09:50.222Z,10.26
2023-05-06T12:12:22.810Z,10.29
2023-05-06T12:14:54.869Z,10.16
2023-05-06T12:17:27.016Z,10.18
2023-05-06T12:19:56.999Z,10.25
2023-05-06T12:22:27.053Z,10.31
2023-05-06T12:24:56.863Z,10.39
2023-05-06T12:27:31.697Z,10.25
2023-05-06T12:30:04.947Z,10.26
2023-05-06T12:32:36.101Z,9.99
2023-05-06T12:35:07.935Z,10.23
2023-05-06T12:37:38.849Z,10.39
2023-05-06T12:40:19.749Z,10.47
2023-05-06T12:42:55.779Z,10.37
2023-05-06T12:45:28.446Z,10.33
2023-05-06T12:48:00.246Z,10.20
2023-05-06T12:50:34.195Z,10.08
2023-05-06T12:53:06.003Z,9.99
2023-05-06T12:55:37.180Z,10.19
2023-05-06T12:58:17.447Z,10.14
2023-05-06T13:00:49.683Z,10.09
2023-05-06T13:03:20.755Z,10.16
2023-05-06T13:05:52.366Z,10.25
2023-05-06T13:08:23.101Z,10.09
2023-05-06T13:10:53.713Z,9.95
2023-05-06T13:13:24.584Z,10.10
2023-05-06T13:15:56.920Z,10.17
2023-05-06T13:18:27.543Z,10.28
2023-05-06T13:20:57.864Z,10.37
2023-05-06T13:23:29.102Z,10.12
2023-05-06T13:26:04.273Z,10.18
2023-05-06T13:28:40.381Z,10.06
2023-05-06T13:31:12.201Z,9.91
2023-05-06T13:33:42.756Z,10.01
2023-05-06T13:36:13.200Z,10.29
2023-05-06T13:38:43.791Z,10.15
2023-05-06T13:41:14.429Z,10.03
2023-05-06T13:43:45.232Z,10.19
2023-05-06T13:46:17.105Z,10.11
2023-05-06T13:48:47.761Z,10.11
2023-05-06T13:51:17.851Z,10.14
2023-05-06T13:53:48.567Z,10.37
2023-05-06T13:56:18.726Z,10.67
2023-05-06T13:58:49.212Z,10.83
2023-05-06T14:01:22.558Z,10.61
2023-05-06T14:03:53.472Z,10.51
2023-05-06T14:06:24.213Z,10.53
2023-05-06T14:08:54.960Z,10.48
2023-05-06T14:11:25.378Z,10.24
2023-05-06T14:13:57.123Z,10.11
2023-05-06T14:16:29.047Z,10.24
2023-05-06T14:19:00.410Z,10.26
2023-05-06T14:21:30.710Z,10.26
2023-05-06T14:24:01.555Z,10.23
2023-05-06T14:26:32.387Z,10.35
2023-05-06T14:29:02.948Z,10.28
2023-05-06T14:31:35.927Z,10.14
2023-05-06T14:34:06.680Z,10.17
2023-05-06T14:36:36.928Z,10.19
2023-05-06T14:39:07.960Z,10.30
2023-05-06T14:41:38.310Z,10.19
2023-05-06T14:44:09.032Z,9.91
2023-05-06T14:46:40.550Z,9.91
2023-05-06T14:49:10.886Z,10.00
2023-05-06T14:51:41.003Z,9.99
2023-05-06T14:54:11.660Z,9.98
2023-05-06T14:56:41.696Z,9.96
2023-05-06T14:59:11.694Z,10.03
2023-05-06T15:01:42.975Z,9.95
2023-05-06T15:04:13.310Z,9.95
2023-05-06T15:06:43.173Z,9.87
2023-05-06T15:09:13.690Z,9.86
2023-05-06T15:11:44.538Z,9.99
2023-05-06T15:14:14.829Z,10.07
2023-05-06T15:16:46.135Z,10.03
2023-05-06T15:19:16.278Z,9.99
2023-05-06T15:21:46.432Z,10.12
2023-05-06T15:24:16.711Z,9.94
2023-05-06T15:26:46.516Z,9.97
2023-05-06T15:29:17.959Z,9.96
2023-05-06T15:31:49.206Z,9.89
2023-05-06T15:34:21.028Z,9.90
2023-05-06T15:36:52.102Z,9.84
2023-05-06T15:39:22.679Z,9.73
2023-05-06T15:41:53.008Z,9.83
2023-05-06T15:44:23.225Z,9.77
2023-05-06T15:46:54.475Z,9.85
2023-05-06T15:51:59.897Z,10.08
2023-05-06T15:54:32.183Z,9.93
2023-05-06T15:57:06.697Z,9.84
2023-05-06T15:59:37.338Z,9.84
2023-05-06T16:04:41.897Z,9.82
2023-05-06T16:07:11.792Z,9.95
2023-05-06T16:09:43.163Z,9.99
2023-05-06T16:12:14.997Z,9.87
2023-05-06T16:14:45.694Z,9.73
2023-05-06T16:17:17.210Z,9.67
2023-05-06T16:19:47.630Z,9.65
2023-05-06T16:22:17.708Z,9.74
2023-05-06T16:24:47.824Z,9.70
2023-05-06T16:27:17.672Z,9.70
2023-05-06T16:29:47.807Z,9.61
2023-05-06T16:32:19.416Z,9.74
2023-05-06T16:34:49.591Z,9.62
2023-05-06T16:37:19.525Z,9.64
2023-05-06T16:39:49.690Z,9.44
2023-05-06T16:42:20.213Z,9.47
2023-05-06T16:44:50.824Z,9.32
2023-05-06T16:47:24.514Z,9.14
2023-05-06T16:49:55.017Z,9.17
2023-05-06T16:52:25.145Z,9.10
2023-05-06T16:54:55.619Z,9.11
2023-05-06T16:57:28.268Z,8.96
2023-05-06T16:59:59.192Z,8.89
2023-05-06T17:02:32.767Z,8.91
2023-05-06T17:05:03.827Z,9.01
2023-05-06T17:07:34.178Z,8.92
2023-05-06T17:10:41.713Z,8.87
2023-05-06T17:13:12.442Z,8.58
2023-05-06T17:15:42.900Z,8.61
2023-05-06T17:18:14.911Z,8.53
2023-05-06T17:20:54.959Z,8.40
2023-05-06T17:23:26.334Z,8.39
2023-05-06T17:25:57.588Z,8.38
2023-05-06T17:28:28.046Z,8.36
2023-05-06T17:30:58.171Z,8.33
2023-05-06T17:33:29.888Z,8.33
2023-05-06T17:36:01.146Z,8.31
2023-05-06T17:38:31.506Z,8.32
2023-05-06T17:41:01.809Z,8.21
2023-05-06T17:43:31.521Z,8.09
2023-05-06T17:46:02.137Z,8.09
2023-05-06T17:48:33.736Z,8.09
2023-05-06T17:51:04.717Z,8.03
2023-05-06T17:53:35.707Z,8.00
2023-05-06T17:56:06.361Z,7.87
2023-05-06T17:58:36.772Z,7.86
2023-05-06T18:01:08.206Z,7.79
2023-05-06T18:03:41.134Z,7.72
2023-05-06T18:06:12.440Z,7.64
2023-05-06T18:08:45.731Z,7.59
2023-05-06T18:11:18.604Z,7.57
2023-05-06T18:13:49.751Z,7.50
2023-05-06T18:16:20.955Z,7.42
2023-05-06T18:18:52.447Z,7.36
2023-05-06T18:21:23.361Z,7.30
2023-05-06T18:24:01.950Z,7.24
2023-05-06T18:26:45.528Z,7.16
2023-05-06T18:29:16.799Z,7.11
2023-05-06T18:31:48.272Z,7.06
2023-05-06T18:34:20.754Z,7.02
2023-05-06T18:36:51.999Z,6.97
2023-05-06T18:39:24.688Z,6.90
2023-05-06T18:41:54.924Z,6.86
2023-05-06T18:44:24.997Z,6.84
2023-05-06T18:46:55.028Z,6.77
2023-05-06T18:49:28.479Z,6.75
2023-05-06T18:51:59.620Z,6.72
2023-05-06T18:54:30.160Z,6.68
2023-05-06T18:57:02.839Z,6.64
2023-05-06T18:59:34.052Z,6.63
2023-05-06T19:02:05.843Z,6.59
2023-05-06T19:04:39.352Z,6.58
2023-05-06T19:07:15.580Z,6.56
2023-05-06T19:09:47.326Z,6.49
2023-05-06T19:12:18.980Z,6.44
2023-05-06T19:14:52.441Z,6.42
2023-05-06T19:17:25.208Z,6.38
2023-05-06T19:19:56.370Z,6.34
2023-05-06T19:22:30.350Z,6.27
2023-05-06T19:25:03.556Z,6.24
2023-05-06T19:27:37.216Z,6.18
2023-05-06T19:30:09.673Z,6.19
2023-05-06T19:32:42.491Z,6.21
2023-05-06T19:35:30.262Z,6.16
2023-05-06T19:46:14.766Z,6.08
2023-05-06T19:53:03.385Z,5.94
2023-05-06T20:03:04.438Z,5.67
2023-05-06T20:05:43.719Z,5.65
2023-05-06T20:08:15.677Z,5.54
2023-05-06T20:15:10.721Z,5.47
2023-05-06T20:17:45.174Z,5.53
2023-05-06T20:20:35.535Z,5.48
2023-05-06T20:25:21.106Z,5.17
2023-05-06T20:28:16.565Z,5.18
2023-05-06T20:34:41.732Z,5.16
2023-05-06T20:37:30.824Z,5.19
2023-05-06T20:40:14.767Z,5.19
2023-05-06T20:43:41.528Z,5.01
2023-05-06T20:46:13.567Z,5.08
2023-05-06T20:48:44.717Z,4.98
2023-05-06T20:51:14.985Z,4.93
2023-05-06T20:53:46.438Z,4.79
2023-05-06T20:56:22.752Z,4.76
2023-05-06T20:58:53.152Z,4.71
2023-05-06T21:01:26.063Z,4.88
2023-05-06T21:03:56.893Z,4.88
2023-05-06T21:06:29.066Z,4.57
2023-05-06T21:09:00.057Z,4.50
2023-05-06T21:11:34.162Z,4.52
2023-05-06T21:14:03.901Z,4.55
2023-05-06T21:16:35.350Z,4.52
2023-05-06T21:19:06.994Z,4.37
2023-05-06T21:21:38.139Z,4.31
2023-05-06T21:24:09.779Z,4.27
2023-05-06T21:26:40.973Z,4.15
2023-05-06T21:29:11.755Z,4.13
2023-05-06T21:31:43.709Z,4.17
2023-05-06T21:34:13.371Z,4.05
2023-05-06T21:36:44.866Z,4.07
2023-05-06T21:39:17.976Z,4.04
2023-05-06T21:41:49.294Z,3.96
2023-05-06T21:44:19.984Z,3.97
2023-05-06T21:46:52.304Z,3.95
2023-05-06T21:49:22.869Z,3.84
2023-05-06T21:51:52.957Z,3.75
2023-05-06T21:54:24.451Z,3.69
2023-05-06T21:56:54.584Z,3.70
2023-05-06T21:59:25.302Z,3.62
2023-05-06T22:01:57.284Z,3.47
2023-05-06T22:04:27.160Z,3.35
2023-05-06T22:06:57.332Z,3.37
2023-05-06T22:09:27.366Z,3.37
2023-05-06T22:11:58.197Z,3.36
2023-05-06T22:14:37.261Z,3.30
2023-05-06T22:17:12.938Z,3.26
2023-05-06T22:19:43.009Z,3.17
2023-05-06T22:22:13.714Z,3.05
2023-05-06T22:24:43.503Z,3.08
2023-05-06T22:27:13.479Z,2.95
2023-05-06T22:29:43.424Z,2.91
2023-05-06T22:32:15.190Z,2.89
2023-05-06T22:34:44.960Z,2.89
2023-05-06T22:37:15.082Z,2.84
2023-05-06T22:39:44.769Z,2.78
2023-05-06T22:42:15.316Z,2.75
2023-05-06T22:44:45.009Z,2.81
2023-05-06T22:47:17.309Z,2.80
2023-05-06T22:49:47.158Z,2.77
2023-05-06T22:52:17.359Z,2.74
2023-05-06T22:54:47.208Z,2.73
2023-05-06T22:57:19.333Z,2.65
2023-05-06T22:59:49.053Z,2.60
2023-05-06T23:02:21.625Z,2.54
2023-05-06T23:04:51.311Z,2.55
2023-05-06T23:07:21.443Z,2.53
2023-05-06T23:09:51.059Z,2.47
2023-05-06T23:12:21.375Z,2.43
2023-05-06T23:14:51.210Z,2.37
2023-05-06T23:17:22.848Z,2.38
2023-05-06T23:19:52.660Z,2.29
2023-05-06T23:22:22.780Z,2.36
2023-05-06T23:24:52.357Z,2.36
2023-05-06T23:27:22.822Z,2.31
2023-05-06T23:29:52.522Z,2.22
2023-05-06T23:32:24.083Z,2.15
2023-05-06T23:34:53.932Z,2.12
2023-05-06T23:37:23.881Z,2.08
2023-05-06T23:39:53.584Z,2.02
2023-05-06T23:42:25.436Z,1.98
2023-05-06T23:44:55.362Z,1.94
2023-05-06T23:47:27.197Z,1.87
2023-05-06T23:49:58.045Z,1.79
2023-05-06T23:52:28.165Z,1.76
2023-05-06T23:54:58.050Z,1.76
2023-05-06T23:57:28.290Z,1.69
2023-05-06T23:59:57.935Z,1.74
